Time;durP1;ratioP1;P1;durP2;ratioP2;P2;SDS_P1;SDS_P2;PMS_P1;PMS_P2;Temp;Humidity;BMP_temperature;BMP_pressure;BME280_temperature;BME280_humidity;BME280_pressure;Samples;Min_cycle;Max_cycle;Signal;HPM_P1;HPM_P2
2022/07/30 00:00:57;;;;;;;1.30;1.05;;;17.20;99.90;;;;;;5056580;28;20650;-55
2022/07/30 00:03:23;;;;;;;1.90;1.50;;;17.10;99.90;;;;;;5074186;28;20179;-54
2022/07/30 00:05:49;;;;;;;1.73;1.35;;;17.20;99.90;;;;;;5074091;28;20167;-54
2022/07/30 00:08:15;;;;;;;1.40;1.30;;;17.10;99.90;;;;;;5056353;28;20175;-55
2022/07/30 00:10:40;;;;;;;1.40;1.10;;;17.10;99.90;;;;;;5039811;28;20536;-55
2022/07/30 00:13:06;;;;;;;2.47;1.50;;;17.10;99.90;;;;;;5074002;28;20260;-55
2022/07/30 00:15:32;;;;;;;1.55;1.20;;;17.10;99.90;;;;;;5074040;28;20170;-54
2022/07/30 00:17:58;;;;;;;1.83;1.60;;;17.10;99.90;;;;;;5056150;28;20228;-55
2022/07/30 00:20:27;;;;;;;1.38;1.20;;;17.10;99.90;;;;;;5056027;28;20674;-54
2022/07/30 00:22:53;;;;;;;1.70;1.38;;;17.10;99.90;;;;;;5073826;28;20202;-55
2022/07/30 00:25:18;;;;;;;1.30;1.20;;;17.00;99.90;;;;;;5073958;28;20252;-55
2022/07/30 00:27:44;;;;;;;1.25;1.13;;;16.90;99.90;;;;;;5074002;28;20181;-54
2022/07/30 00:30:11;;;;;;;1.40;1.25;;;16.90;99.90;;;;;;5055885;28;20171;-54
2022/07/30 00:32:36;;;;;;;1.40;1.30;;;16.90;99.90;;;;;;5039473;28;20567;-55
2022/07/30 00:35:02;;;;;;;1.67;1.30;;;16.90;99.90;;;;;;5073558;28;20175;-54
2022/07/30 00:37:28;;;;;;;1.48;1.23;;;16.90;99.90;;;;;;5056152;28;20686;-55
2022/07/30 00:39:54;;;;;;;1.45;1.35;;;16.90;99.90;;;;;;5073716;28;20179;-55
2022/07/30 00:42:24;;;;;;;1.85;1.75;;;16.80;99.90;;;;;;5073694;28;20251;-54
2022/07/30 00:44:53;;;;;;;2.03;1.30;;;16.70;99.90;;;;;;5073560;28;20210;-53
2022/07/30 00:47:20;;;;;;;1.45;1.35;;;16.70;99.90;;;;;;5073410;28;20171;-54
2022/07/30 00:49:46;;;;;;;1.70;1.30;;;16.70;99.90;;;;;;5073409;28;20636;-56
2022/07/30 00:52:12;;;;;;;1.88;1.30;;;16.70;99.90;;;;;;5073497;28;20206;-54
2022/07/30 00:54:37;;;;;;;1.20;1.10;;;16.70;99.90;;;;;;5055511;28;20189;-55
2022/07/30 00:57:07;;;;;;;1.40;1.10;;;16.70;99.90;;;;;;5073439;28;20179;-53
2022/07/30 00:59:33;;;;;;;1.45;1.02;;;16.70;99.90;;;;;;5073431;28;20639;-55
2022/07/30 01:02:00;;;;;;;1.40;1.30;;;16.60;99.90;;;;;;5073017;28;20178;-54
2022/07/30 01:04:26;;;;;;;1.52;1.20;;;16.70;99.90;;;;;;5055806;28;20261;-55
2022/07/30 01:06:51;;;;;;;2.17;1.17;;;16.50;99.90;;;;;;5073475;28;20281;-55
2022/07/30 01:09:17;;;;;;;1.77;1.60;;;16.40;99.90;;;;;;5073393;28;20179;-54
2022/07/30 01:11:43;;;;;;;2.70;1.48;;;16.50;99.90;;;;;;5073003;28;20207;-54
2022/07/30 01:14:10;;;;;;;1.52;1.15;;;16.50;99.90;;;;;;5073294;28;20198;-55
2022/07/30 01:16:40;;;;;;;1.42;1.10;;;16.50;99.90;;;;;;5073035;28;20697;-54
2022/07/30 01:22:09;;;;;;;1.45;1.35;;;16.40;99.90;;;;;;5073433;28;20267;-53
2022/07/30 01:24:39;;;;;;;1.23;1.10;;;16.30;99.90;;;;;;5073148;28;20215;-54
2022/07/30 01:27:07;;;;;;;1.92;1.30;;;16.30;99.90;;;;;;5072966;28;20178;-54
2022/07/30 01:29:33;;;;;;;1.30;1.20;;;16.30;99.90;;;;;;5073296;28;20219;-54
2022/07/30 01:32:01;;;;;;;3.97;1.52;;;16.30;99.90;;;;;;5073091;28;20206;-54
2022/07/30 01:34:32;;;;;;;1.85;1.35;;;16.20;99.90;;;;;;5072951;28;20203;-55
2022/07/30 01:37:01;;;;;;;1.02;0.93;;;16.10;99.90;;;;;;5073009;28;20265;-55
2022/07/30 01:39:29;;;;;;;1.85;1.65;;;16.10;99.90;;;;;;5072952;28;20175;-53
2022/07/30 01:41:55;;;;;;;1.40;1.30;;;16.00;99.90;;;;;;5073234;28;20182;-54
2022/07/30 01:44:25;;;;;;;1.98;1.55;;;16.00;99.90;;;;;;5073094;28;20175;-54
2022/07/30 01:46:53;;;;;;;1.92;1.45;;;16.00;99.90;;;;;;5055045;28;20171;-54
2022/07/30 01:49:22;;;;;;;1.40;1.30;;;16.00;99.90;;;;;;5054945;28;20707;-54
2022/07/30 01:51:50;;;;;;;2.45;1.70;;;15.90;99.90;;;;;;5072805;28;20229;-55
2022/07/30 01:54:17;;;;;;;2.35;1.92;;;15.90;99.90;;;;;;5055035;28;20273;-54
2022/07/30 01:56:46;;;;;;;1.60;1.50;;;15.90;99.90;;;;;;5072939;28;20175;-55
2022/07/30 01:59:15;;;;;;;2.17;1.73;;;15.90;99.90;;;;;;5072715;28;20531;-54
2022/07/30 02:01:41;;;;;;;1.73;1.40;;;15.90;99.90;;;;;;5072822;28;20179;-55
2022/07/30 02:04:06;;;;;;;3.08;1.80;;;15.90;99.90;;;;;;5072690;28;20655;-54
2022/07/30 02:06:40;;;;;;;1.95;1.50;;;15.80;99.90;;;;;;5072738;28;20291;-55
2022/07/30 02:09:07;;;;;;;3.35;1.85;;;15.80;99.90;;;;;;5072674;28;20516;-56
2022/07/30 02:14:31;;;;;;;2.00;1.52;;;15.80;99.90;;;;;;5073514;28;20193;-56
2022/07/30 02:17:04;;;;;;;2.67;1.75;;;15.80;99.90;;;;;;5076343;28;20158;-54
2022/07/30 02:19:36;;;;;;;2.05;1.52;;;15.80;99.90;;;;;;5042194;28;20302;-55
2022/07/30 02:22:09;;;;;;;2.28;1.70;;;15.80;99.90;;;;;;5076381;28;20171;-52
2022/07/30 02:24:37;;;;;;;2.15;1.70;;;15.80;99.90;;;;;;5076369;28;20171;-53
2022/07/30 02:27:09;;;;;;;1.67;1.45;;;15.80;99.90;;;;;;5076161;28;20182;-55
2022/07/30 02:29:36;;;;;;;2.03;1.63;;;15.80;99.90;;;;;;5076091;28;20174;-54
2022/07/30 02:32:09;;;;;;;1.80;1.50;;;15.70;99.90;;;;;;5076117;28;20219;-56
2022/07/30 02:34:39;;;;;;;1.50;1.35;;;15.70;99.90;;;;;;5076099;28;20167;-55
2022/07/30 02:37:06;;;;;;;1.98;1.58;;;15.70;99.90;;;;;;5076091;28;20179;-54
2022/07/30 02:39:33;;;;;;;1.73;1.45;;;15.60;99.90;;;;;;5058528;28;20179;-55
2022/07/30 02:42:00;;;;;;;1.65;1.55;;;15.60;99.90;;;;;;5076143;28;20186;-55
2022/07/30 02:44:28;;;;;;;1.75;1.65;;;15.60;99.90;;;;;;5076231;28;20179;-55
2022/07/30 02:46:57;;;;;;;2.17;1.98;;;15.70;99.90;;;;;;5075897;28;20179;-55
2022/07/30 02:49:25;;;;;;;2.03;1.83;;;15.70;99.90;;;;;;5075934;28;20198;-57
2022/07/30 02:51:51;;;;;;;2.42;1.77;;;15.60;99.90;;;;;;5058035;28;20256;-55
2022/07/30 02:54:19;;;;;;;2.42;2.10;;;15.50;99.90;;;;;;5057916;28;20647;-54
2022/07/30 02:56:50;;;;;;;1.85;1.75;;;15.60;99.90;;;;;;5057859;28;20217;-54
2022/07/30 02:59:18;;;;;;;2.30;2.00;;;15.60;99.90;;;;;;5075681;28;20256;-54
2022/07/30 03:01:46;;;;;;;3.40;2.40;;;15.70;99.90;;;;;;5075863;28;20179;-55
2022/07/30 03:04:14;;;;;;;2.55;2.10;;;15.60;99.90;;;;;;5075724;28;20170;-55
2022/07/30 03:06:45;;;;;;;3.85;2.28;;;15.70;99.90;;;;;;5075421;28;20241;-54
2022/07/30 03:09:11;;;;;;;2.83;2.13;;;15.70;99.90;;;;;;5075469;28;20363;-55
2022/07/30 03:11:39;;;;;;;2.85;2.15;;;15.70;99.90;;;;;;5075135;28;20310;-52
2022/07/30 03:14:06;;;;;;;2.45;1.88;;;15.70;99.90;;;;;;5041053;28;20179;-52
2022/07/30 03:16:35;;;;;;;3.25;1.95;;;15.70;99.90;;;;;;5075235;28;20196;-54
2022/07/30 03:19:05;;;;;;;2.15;1.75;;;15.60;99.90;;;;;;5075365;28;20166;-53
2022/07/30 03:21:34;;;;;;;2.90;2.00;;;15.70;99.90;;;;;;5075202;28;20262;-56
2022/07/30 03:24:02;;;;;;;3.35;2.10;;;15.60;99.90;;;;;;5057293;28;20174;-55
2022/07/30 03:26:28;;;;;;;3.10;2.10;;;15.60;99.90;;;;;;5075320;28;20379;-55
2022/07/30 03:28:55;;;;;;;2.47;1.95;;;15.60;99.90;;;;;;5075455;28;20178;-55
2022/07/30 03:31:21;;;;;;;2.17;1.83;;;15.60;99.90;;;;;;5075005;28;20189;-53
2022/07/30 03:33:47;;;;;;;2.92;2.30;;;15.50;99.90;;;;;;5074880;28;20201;-55
2022/07/30 03:36:16;;;;;;;2.83;2.10;;;15.50;99.90;;;;;;5074837;28;20175;-54
2022/07/30 03:38:44;;;;;;;2.10;1.80;;;15.50;99.90;;;;;;5075139;28;20583;-55
2022/07/30 03:41:10;;;;;;;2.47;2.28;;;15.50;99.90;;;;;;5074809;28;20171;-54
2022/07/30 03:43:40;;;;;;;2.42;2.10;;;15.60;99.90;;;;;;5056826;28;20739;-53
2022/07/30 03:46:08;;;;;;;2.30;2.03;;;15.50;99.90;;;;;;5074926;28;20170;-54
2022/07/30 03:48:35;;;;;;;3.40;2.20;;;15.60;99.90;;;;;;5056640;28;20190;-52
2022/07/30 03:51:03;;;;;;;2.72;2.05;;;15.50;99.90;;;;;;5074662;28;20179;-55
2022/07/30 03:53:29;;;;;;;2.78;1.98;;;15.50;99.90;;;;;;5056850;28;20226;-55
2022/07/30 03:55:55;;;;;;;3.03;1.85;;;15.40;99.90;;;;;;5056764;28;20660;-55
2022/07/30 03:58:21;;;;;;;2.30;2.03;;;15.50;99.90;;;;;;5074364;28;20174;-54
2022/07/30 04:00:49;;;;;;;2.53;1.92;;;15.50;99.90;;;;;;5074472;28;20586;-56
2022/07/30 04:03:29;;;;;;;3.35;1.95;;;15.50;99.90;;;;;;5074173;28;20175;-56
2022/07/30 04:05:55;;;;;;;2.67;1.90;;;15.50;99.90;;;;;;5074522;28;20563;-54
2022/07/30 04:08:21;;;;;;;3.33;2.20;;;15.50;99.90;;;;;;5074674;28;20179;-53
2022/07/30 04:10:48;;;;;;;2.70;2.35;;;15.50;99.90;;;;;;5056678;28;20212;-55
2022/07/30 04:13:14;;;;;;;3.40;2.40;;;15.50;99.90;;;;;;5074412;28;20228;-55
2022/07/30 04:16:29;;;;;;;2.75;2.30;;;15.50;99.90;;;;;;5039599;28;20217;-55
2022/07/30 04:19:00;;;;;;;2.72;2.10;;;15.60;99.90;;;;;;4973161;28;20707;-56
2022/07/30 04:21:27;;;;;;;2.35;2.15;;;15.60;99.90;;;;;;4957792;28;20272;-54
2022/07/30 04:23:54;;;;;;;3.17;2.28;;;15.60;99.90;;;;;;5024854;28;20252;-55
2022/07/30 04:26:21;;;;;;;2.88;1.92;;;15.50;99.90;;;;;;5073756;28;20197;-55
2022/07/30 04:28:47;;;;;;;3.35;2.47;;;15.50;99.90;;;;;;5039790;28;20183;-54
2022/07/30 04:31:17;;;;;;;2.70;1.92;;;15.50;99.90;;;;;;5056124;28;20174;-55
2022/07/30 04:33:45;;;;;;;2.55;1.90;;;15.50;99.90;;;;;;5073841;28;20178;-56
2022/07/30 04:36:10;;;;;;;3.33;2.28;;;15.60;99.90;;;;;;5073763;28;20180;-54
2022/07/30 04:38:36;;;;;;;2.53;1.80;;;15.60;99.90;;;;;;5073089;28;20175;-56
2022/07/30 04:41:02;;;;;;;2.42;1.95;;;15.70;99.90;;;;;;5073420;28;20274;-56
2022/07/30 04:43:28;;;;;;;2.78;2.22;;;15.70;99.90;;;;;;5073804;28;20179;-56
2022/07/30 04:45:54;;;;;;;3.28;2.50;;;15.80;99.90;;;;;;5073700;28;20512;-54
2022/07/30 04:48:25;;;;;;;3.40;2.58;;;15.80;99.90;;;;;;5056044;28;20586;-56
2022/07/30 04:50:56;;;;;;;2.83;2.40;;;15.90;99.90;;;;;;5056122;28;20528;-54
2022/07/30 04:53:22;;;;;;;3.00;2.40;;;15.90;99.90;;;;;;5055525;28;20244;-56
2022/07/30 04:55:50;;;;;;;2.47;2.10;;;15.90;99.90;;;;;;5073630;28;20178;-56
2022/07/30 04:58:19;;;;;;;2.90;2.22;;;16.00;99.90;;;;;;5073547;28;20308;-55
2022/07/30 05:00:45;;;;;;;2.92;2.20;;;16.10;99.90;;;;;;5073498;28;20170;-56
2022/07/30 05:03:13;;;;;;;2.80;2.45;;;16.00;99.90;;;;;;5073281;28;20763;-56
2022/07/30 05:05:39;;;;;;;2.97;2.40;;;15.90;99.90;;;;;;5073224;28;20190;-56
2022/07/30 05:08:05;;;;;;;2.47;2.17;;;15.80;99.90;;;;;;5055437;28;20178;-57
2022/07/30 05:10:31;;;;;;;3.78;2.80;;;15.90;99.90;;;;;;5073167;28;20186;-54
2022/07/30 05:12:57;;;;;;;3.03;2.08;;;15.80;99.90;;;;;;5073107;28;20580;-57
2022/07/30 05:15:23;;;;;;;2.85;2.08;;;15.80;99.90;;;;;;5055843;28;20662;-57
2022/07/30 05:17:49;;;;;;;3.03;2.13;;;15.90;99.90;;;;;;5072732;28;20179;-57
2022/07/30 05:20:14;;;;;;;3.58;2.70;;;16.00;99.90;;;;;;5054934;28;20178;-58
2022/07/30 05:22:40;;;;;;;2.30;1.70;;;16.10;99.90;;;;;;5072648;28;20627;-57
2022/07/30 05:25:06;;;;;;;3.47;2.58;;;16.10;99.90;;;;;;5073317;28;20546;-57
2022/07/30 05:27:32;;;;;;;3.03;2.30;;;16.20;99.90;;;;;;5073113;28;20267;-57
2022/07/30 05:29:58;;;;;;;2.40;2.15;;;16.30;99.90;;;;;;5073095;28;20261;-57
2022/07/30 05:32:23;;;;;;;3.67;2.50;;;16.30;99.90;;;;;;5054929;28;20309;-57
2022/07/30 05:34:49;;;;;;;3.10;2.45;;;16.40;99.90;;;;;;5072942;28;20182;-56
2022/07/30 05:37:15;;;;;;;3.85;2.47;;;16.60;99.90;;;;;;5072885;28;20170;-57
2022/07/30 05:39:41;;;;;;;3.83;2.50;;;16.60;99.90;;;;;;5055220;28;20175;-56
2022/07/30 05:42:06;;;;;;;3.28;2.45;;;16.80;99.90;;;;;;5072754;28;20186;-57
2022/07/30 05:44:32;;;;;;;2.80;2.33;;;16.80;99.90;;;;;;5072828;28;20178;-56
2022/07/30 05:46:58;;;;;;;2.40;2.10;;;16.70;99.90;;;;;;5055069;28;20182;-57
2022/07/30 05:49:23;;;;;;;3.38;2.55;;;16.80;99.90;;;;;;5075149;28;20183;-57
2022/07/30 05:51:50;;;;;;;4.15;2.60;;;16.80;99.90;;;;;;5058989;28;20567;-56
2022/07/30 05:54:15;;;;;;;2.60;2.30;;;16.90;99.90;;;;;;5076798;28;20177;-57
2022/07/30 05:56:41;;;;;;;2.97;2.40;;;17.10;99.90;;;;;;5076811;28;20292;-57
2022/07/30 05:59:06;;;;;;;3.03;2.50;;;17.10;99.90;;;;;;5076633;28;20544;-57
2022/07/30 06:01:32;;;;;;;3.10;2.53;;;17.30;99.90;;;;;;5058721;28;20179;-57
2022/07/30 06:03:58;;;;;;;3.80;2.78;;;17.40;99.90;;;;;;5058517;28;20278;-56
2022/07/30 06:06:23;;;;;;;3.63;2.75;;;17.50;99.90;;;;;;5058603;28;20185;-56
2022/07/30 06:08:49;;;;;;;3.47;2.50;;;17.60;99.90;;;;;;5076646;28;20273;-57
2022/07/30 06:11:18;;;;;;;3.95;3.08;;;17.50;99.90;;;;;;5075487;28;20232;-57
2022/07/30 06:13:44;;;;;;;3.55;2.20;;;17.70;99.90;;;;;;5076442;28;20651;-57
2022/07/30 06:16:09;;;;;;;3.08;2.45;;;17.80;99.90;;;;;;5042062;28;20209;-58
2022/07/30 06:18:35;;;;;;;4.28;2.38;;;17.80;99.90;;;;;;5076108;28;20179;-57
2022/07/30 06:21:01;;;;;;;2.90;2.30;;;17.80;99.90;;;;;;5058357;28;20178;-57
2022/07/30 06:23:26;;;;;;;3.28;2.60;;;17.80;99.90;;;;;;5076249;28;20183;-57
2022/07/30 06:25:52;;;;;;;3.08;2.35;;;18.00;99.90;;;;;;5075349;28;20174;-57
2022/07/30 06:28:18;;;;;;;2.85;2.15;;;18.10;99.90;;;;;;5075683;28;20181;-57
2022/07/30 06:30:44;;;;;;;3.25;2.42;;;18.30;99.90;;;;;;5075643;28;20190;-57
2022/07/30 06:33:11;;;;;;;3.75;2.17;;;18.50;99.90;;;;;;5074632;28;20736;-52
2022/07/30 06:35:36;;;;;;;3.42;2.55;;;18.70;99.90;;;;;;5075787;28;20174;-54
2022/07/30 06:38:02;;;;;;;3.47;2.55;;;18.80;99.90;;;;;;5076203;28;20174;-54
2022/07/30 06:40:28;;;;;;;3.78;2.58;;;18.70;99.90;;;;;;5075649;28;20174;-57
2022/07/30 06:42:53;;;;;;;3.35;2.45;;;18.80;99.90;;;;;;5074821;28;20190;-57
2022/07/30 06:45:22;;;;;;;3.78;2.85;;;19.00;99.90;;;;;;5057871;28;20185;-56
2022/07/30 06:47:47;;;;;;;3.00;2.30;;;19.30;99.90;;;;;;5057759;28;20539;-56
2022/07/30 06:50:19;;;;;;;3.55;2.63;;;19.70;99.90;;;;;;5075917;28;20270;-57
2022/07/30 06:52:44;;;;;;;3.38;2.33;;;20.00;99.90;;;;;;5075789;28;20216;-57
2022/07/30 06:55:13;;;;;;;3.08;2.42;;;19.90;99.90;;;;;;5075742;28;20594;-56
2022/07/30 06:57:41;;;;;;;4.00;2.58;;;20.20;99.90;;;;;;5075610;28;20178;-57
2022/07/30 07:00:08;;;;;;;2.90;1.90;;;20.30;99.90;;;;;;5074848;28;20253;-57
2022/07/30 07:02:33;;;;;;;2.67;1.65;;;20.20;99.90;;;;;;5075444;28;20202;-57
2022/07/30 07:04:59;;;;;;;2.70;1.73;;;20.10;99.90;;;;;;5075570;28;20656;-57
2022/07/30 07:07:25;;;;;;;2.42;1.88;;;20.40;99.90;;;;;;5057589;28;20209;-57
2022/07/30 07:09:50;;;;;;;2.13;1.50;;;20.50;99.90;;;;;;5075492;28;20167;-56
2022/07/30 07:12:16;;;;;;;2.72;1.67;;;20.80;99.90;;;;;;5057161;28;20610;-57
2022/07/30 07:14:42;;;;;;;2.20;1.50;;;20.80;99.90;;;;;;5057687;28;20186;-57
2022/07/30 07:17:07;;;;;;;2.58;1.35;;;20.50;99.90;;;;;;5057252;28;20691;-57
2022/07/30 07:19:33;;;;;;;1.50;1.38;;;20.40;99.90;;;;;;5075622;28;20232;-57
2022/07/30 07:21:59;;;;;;;1.23;1.13;;;20.30;99.90;;;;;;5057117;28;20188;-57
2022/07/30 07:24:24;;;;;;;1.40;1.00;;;20.50;99.90;;;;;;5057390;28;20183;-56
2022/07/30 07:26:50;;;;;;;1.30;1.20;;;20.40;99.90;;;;;;5074866;28;20667;-57
2022/07/30 07:29:16;;;;;;;1.25;1.02;;;20.60;99.90;;;;;;5057179;28;20174;-57
2022/07/30 07:31:41;;;;;;;2.00;1.10;;;20.70;99.90;;;;;;5074825;28;20203;-57
2022/07/30 07:34:07;;;;;;;1.98;1.13;;;20.80;99.90;;;;;;5074839;28;20178;-57
2022/07/30 07:36:34;;;;;;;1.10;1.00;;;21.10;99.90;;;;;;5075317;28;20174;-57
2022/07/30 07:38:59;;;;;;;1.10;1.00;;;21.20;99.90;;;;;;5057438;28;20175;-57
2022/07/30 07:41:25;;;;;;;1.50;0.88;;;21.30;99.90;;;;;;5075103;28;20262;-57
2022/07/30 07:43:51;;;;;;;1.20;1.10;;;21.20;99.90;;;;;;5074642;28;20179;-57
2022/07/30 07:46:16;;;;;;;1.20;0.85;;;21.40;99.90;;;;;;5074592;28;20179;-57
2022/07/30 07:48:43;;;;;;;1.38;1.00;;;21.30;99.90;;;;;;5074856;28;20167;-57
2022/07/30 07:51:09;;;;;;;1.30;1.10;;;21.40;99.90;;;;;;5074618;28;20174;-56
2022/07/30 07:53:34;;;;;;;1.05;0.80;;;21.60;99.90;;;;;;5056703;28;20743;-56
2022/07/30 07:56:00;;;;;;;0.68;0.68;;;21.60;99.90;;;;;;5074662;28;20624;-57
2022/07/30 07:58:26;;;;;;;0.77;0.77;;;21.70;99.90;;;;;;5074410;28;20167;-57
2022/07/30 08:00:53;;;;;;;1.25;1.02;;;21.90;99.90;;;;;;5074281;28;20175;-55
2022/07/30 08:03:18;;;;;;;1.33;0.55;;;22.00;99.90;;;;;;5074497;28;20175;-57
2022/07/30 08:05:44;;;;;;;0.57;0.57;;;22.20;99.90;;;;;;5056729;28;20174;-58
2022/07/30 08:08:10;;;;;;;0.63;0.63;;;22.40;99.90;;;;;;5056485;28;20632;-55
2022/07/30 08:10:35;;;;;;;1.17;0.70;;;22.50;99.90;;;;;;5074628;28;20186;-57
2022/07/30 08:13:02;;;;;;;0.95;0.70;;;22.30;99.90;;;;;;5072977;28;20220;-57
2022/07/30 08:15:28;;;;;;;0.50;0.50;;;22.40;99.90;;;;;;5073964;28;20214;-57
2022/07/30 08:17:54;;;;;;;0.80;0.52;;;22.50;99.90;;;;;;5056225;28;20205;-56
2022/07/30 08:20:21;;;;;;;0.68;0.47;;;22.60;99.90;;;;;;5074141;28;20254;-57
2022/07/30 08:22:47;;;;;;;0.63;0.60;;;23.10;99.90;;;;;;5073641;28;20190;-56
2022/07/30 08:25:12;;;;;;;0.90;0.57;;;23.30;99.60;;;;;;5074007;28;20178;-55
2022/07/30 08:27:38;;;;;;;0.68;0.50;;;23.60;98.80;;;;;;5056099;28;20319;-56
2022/07/30 08:30:05;;;;;;;0.85;0.50;;;23.70;97.40;;;;;;5073802;28;20174;-56
2022/07/30 08:32:31;;;;;;;1.15;0.43;;;23.70;97.80;;;;;;5074015;28;20218;-57
2022/07/30 08:34:56;;;;;;;1.38;0.57;;;23.90;97.70;;;;;;5073844;28;20186;-56
2022/07/30 08:37:22;;;;;;;0.50;0.38;;;23.70;96.90;;;;;;5073870;28;20185;-56
2022/07/30 08:39:48;;;;;;;0.60;0.60;;;23.90;97.00;;;;;;5055945;28;20221;-57
2022/07/30 08:42:14;;;;;;;1.38;0.60;;;24.00;96.50;;;;;;5073513;28;20186;-57
2022/07/30 08:44:40;;;;;;;1.10;0.70;;;23.90;96.50;;;;;;5073485;28;20605;-57
2022/07/30 08:47:08;;;;;;;1.63;0.80;;;23.80;96.00;;;;;;5039520;28;20252;-57
2022/07/30 08:49:35;;;;;;;0.50;0.50;;;23.90;96.50;;;;;;5073604;28;20223;-56
2022/07/30 08:52:01;;;;;;;0.40;0.40;;;24.00;96.40;;;;;;5073770;28;20199;-57
2022/07/30 08:54:27;;;;;;;0.50;0.50;;;24.10;96.40;;;;;;5055781;28;20174;-57
2022/07/30 08:56:53;;;;;;;1.75;0.55;;;24.20;95.80;;;;;;5055685;28;20178;-57
2022/07/30 08:59:22;;;;;;;1.05;0.50;;;24.40;96.10;;;;;;5073650;28;20225;-57
2022/07/30 09:01:50;;;;;;;0.45;0.40;;;24.40;96.90;;;;;;5055613;28;20205;-57
2022/07/30 09:04:16;;;;;;;0.60;0.47;;;24.70;96.50;;;;;;5055699;28;20591;-57
2022/07/30 09:06:41;;;;;;;0.47;0.47;;;24.00;96.60;;;;;;5055481;28;20206;-57
2022/07/30 09:09:07;;;;;;;0.30;0.30;;;24.30;96.70;;;;;;5073272;28;20181;-57
2022/07/30 09:11:35;;;;;;;1.35;0.50;;;24.50;96.30;;;;;;5072954;28;20171;-57
2022/07/30 09:14:08;;;;;;;0.60;0.50;;;24.80;96.50;;;;;;5073636;28;20182;-57
2022/07/30 09:16:35;;;;;;;0.50;0.50;;;24.50;96.40;;;;;;5055874;28;20231;-57
2022/07/30 09:19:23;;;;;;;0.82;0.50;;;24.60;96.90;;;;;;5073241;28;20171;-57
2022/07/30 09:21:59;;;;;;;0.70;0.60;;;25.00;97.10;;;;;;5073224;28;20183;-58
2022/07/30 09:24:25;;;;;;;0.40;0.40;;;25.00;96.40;;;;;;5072520;28;20540;-57
2022/07/30 09:26:59;;;;;;;0.40;0.40;;;24.90;96.70;;;;;;5055399;28;20181;-57
2022/07/30 09:29:29;;;;;;;1.40;0.60;;;24.90;96.80;;;;;;5073181;28;20174;-57
2022/07/30 09:31:59;;;;;;;0.50;0.50;;;24.90;96.50;;;;;;5055201;28;20683;-57
2022/07/30 09:34:26;;;;;;;0.45;0.45;;;24.70;95.40;;;;;;5073097;28;20181;-57
2022/07/30 09:36:52;;;;;;;0.50;0.50;;;24.60;96.40;;;;;;5072988;28;20174;-57
2022/07/30 09:39:37;;;;;;;1.67;0.55;;;24.70;96.10;;;;;;5055282;28;20197;-58
2022/07/30 09:42:17;;;;;;;0.60;0.60;;;24.70;95.70;;;;;;5073194;28;20574;-57
2022/07/30 09:44:43;;;;;;;0.47;0.47;;;24.70;95.90;;;;;;5073055;28;20194;-56
2022/07/30 09:47:32;;;;;;;0.60;0.60;;;24.50;96.10;;;;;;5072823;28;20178;-57
2022/07/30 09:50:07;;;;;;;1.30;0.50;;;25.00;96.30;;;;;;5055113;28;20173;-56
2022/07/30 09:52:33;;;;;;;0.47;0.47;;;25.30;95.10;;;;;;5072792;28;20633;-57
2022/07/30 09:54:59;;;;;;;0.50;0.50;;;25.70;95.00;;;;;;5072914;28;20579;-57
2022/07/30 09:57:25;;;;;;;0.45;0.45;;;25.70;94.60;;;;;;5072738;28;20189;-57
2022/07/30 09:59:51;;;;;;;0.82;0.70;;;25.70;93.90;;;;;;5055014;28;20175;-57
2022/07/30 10:02:17;;;;;;;0.50;0.50;;;25.50;93.50;;;;;;5072976;28;20183;-57
2022/07/30 10:04:43;;;;;;;0.52;0.52;;;25.70;94.50;;;;;;5054989;28;20261;-57
2022/07/30 10:07:21;;;;;;;0.82;0.70;;;26.10;95.30;;;;;;5072822;28;20262;-57
2022/07/30 10:09:47;;;;;;;1.08;0.68;;;26.70;94.10;;;;;;5072770;28;20250;-57
2022/07/30 10:12:14;;;;;;;0.50;0.50;;;26.50;93.10;;;;;;5072765;28;20222;-57
2022/07/30 10:14:44;;;;;;;0.55;0.52;;;26.30;93.50;;;;;;5072794;28;20167;-58
2022/07/30 10:17:10;;;;;;;0.50;0.50;;;26.30;93.70;;;;;;5072732;28;20173;-56
2022/07/30 10:19:37;;;;;;;1.00;0.68;;;26.20;94.00;;;;;;5072607;28;20198;-57
2022/07/30 10:22:03;;;;;;;1.52;0.68;;;26.10;94.10;;;;;;5072765;28;20220;-57
2022/07/30 10:24:30;;;;;;;0.88;0.60;;;25.90;93.50;;;;;;5072521;28;20231;-59
2022/07/30 10:26:56;;;;;;;0.63;0.63;;;25.80;94.10;;;;;;5072832;28;20250;-57
2022/07/30 10:29:22;;;;;;;2.05;0.80;;;25.70;95.30;;;;;;5072763;28;20262;-56
2022/07/30 10:31:49;;;;;;;0.50;0.50;;;25.80;95.70;;;;;;5054613;28;20611;-57
2022/07/30 10:34:16;;;;;;;0.55;0.55;;;25.70;94.50;;;;;;5054669;28;20174;-57
2022/07/30 10:36:46;;;;;;;1.35;0.50;;;25.80;94.00;;;;;;5075014;28;20174;-55
2022/07/30 10:39:17;;;;;;;1.15;0.52;;;25.90;93.90;;;;;;5076421;28;20248;-56
2022/07/30 10:42:21;;;;;;;0.70;0.70;;;26.10;93.60;;;;;;5076388;28;20194;-56
2022/07/30 10:45:01;;;;;;;2.03;1.00;;;26.20;94.30;;;;;;5076152;28;20162;-57
2022/07/30 10:47:28;;;;;;;0.65;0.65;;;26.20;93.90;;;;;;5057988;28;20497;-57
2022/07/30 10:50:05;;;;;;;0.63;0.60;;;26.20;93.60;;;;;;5058244;28;20178;-57
2022/07/30 10:52:51;;;;;;;1.35;1.00;;;26.10;92.90;;;;;;5075682;28;20678;-57
2022/07/30 10:55:25;;;;;;;1.65;0.70;;;25.90;93.40;;;;;;5075934;28;20163;-57
2022/07/30 10:57:58;;;;;;;1.00;0.90;;;25.90;94.40;;;;;;5075628;28;20639;-57
2022/07/30 11:00:25;;;;;;;1.10;0.88;;;25.70;94.20;;;;;;5075838;28;20258;-57
2022/07/30 11:03:09;;;;;;;0.95;0.70;;;25.80;94.40;;;;;;5075547;28;20186;-57
2022/07/30 11:05:35;;;;;;;0.80;0.70;;;25.80;94.20;;;;;;5075785;28;20179;-57
2022/07/30 11:08:39;;;;;;;1.83;0.88;;;25.70;95.10;;;;;;5075537;28;20179;-57
2022/07/30 11:11:27;;;;;;;0.95;0.85;;;25.70;95.10;;;;;;5057721;28;20175;-57
2022/07/30 11:13:59;;;;;;;1.23;0.90;;;26.00;94.70;;;;;;5075235;28;20667;-56
2022/07/30 11:16:31;;;;;;;1.67;0.73;;;26.20;94.40;;;;;;5075479;28;20225;-57
2022/07/30 11:19:15;;;;;;;1.10;0.90;;;26.30;94.10;;;;;;5075212;28;20254;-57
2022/07/30 11:21:41;;;;;;;1.23;1.10;;;26.40;94.50;;;;;;5057492;28;20181;-56
2022/07/30 11:24:43;;;;;;;0.88;0.73;;;26.30;93.10;;;;;;5075300;28;20167;-57
2022/07/30 11:27:29;;;;;;;1.23;1.00;;;26.40;93.30;;;;;;5074872;28;20264;-57
2022/07/30 11:29:55;;;;;;;1.38;1.27;;;26.60;93.60;;;;;;5060152;28;20179;-57
2022/07/30 11:32:29;;;;;;;1.08;0.80;;;26.50;94.00;;;;;;5074946;28;20202;-55
2022/07/30 11:35:11;;;;;;;0.93;0.88;;;26.50;93.40;;;;;;5075129;28;20249;-57
2022/07/30 11:37:57;;;;;;;0.82;0.77;;;26.50;93.50;;;;;;5074772;28;20628;-56
2022/07/30 11:40:24;;;;;;;1.08;0.80;;;26.30;93.40;;;;;;5074953;28;20529;-56
2022/07/30 11:43:10;;;;;;;1.35;0.70;;;26.20;93.50;;;;;;5074897;28;20574;-57
2022/07/30 11:45:36;;;;;;;1.05;0.93;;;26.40;93.40;;;;;;5074705;28;20167;-56
2022/07/30 11:48:09;;;;;;;1.77;0.80;;;26.60;92.60;;;;;;5074529;28;20190;-56
2022/07/30 11:50:35;;;;;;;0.85;0.80;;;26.80;93.00;;;;;;5074964;28;20166;-56
2022/07/30 11:53:02;;;;;;;0.77;0.60;;;27.00;92.80;;;;;;5056802;28;20214;-56
2022/07/30 11:55:38;;;;;;;1.00;0.70;;;27.20;92.30;;;;;;5074542;28;20182;-57
2022/07/30 11:58:22;;;;;;;0.75;0.70;;;27.40;92.70;;;;;;5074531;28;20170;-57
2022/07/30 12:00:49;;;;;;;1.17;0.60;;;27.60;92.00;;;;;;5074638;28;20170;-57
2022/07/30 12:03:17;;;;;;;0.75;0.75;;;27.80;92.10;;;;;;5074251;28;20237;-56
2022/07/30 12:05:43;;;;;;;0.70;0.68;;;27.50;91.10;;;;;;5056464;28;20201;-57
2022/07/30 12:08:11;;;;;;;0.75;0.55;;;27.40;91.60;;;;;;5074231;28;20575;-57
2022/07/30 12:10:40;;;;;;;1.00;0.77;;;27.10;90.70;;;;;;5056245;28;20191;-57
2022/07/30 12:13:07;;;;;;;0.50;0.50;;;27.40;91.00;;;;;;5074242;28;20250;-57
2022/07/30 12:15:35;;;;;;;0.52;0.52;;;27.50;91.10;;;;;;5074335;28;20189;-56
2022/07/30 12:18:01;;;;;;;0.77;0.57;;;27.80;91.20;;;;;;5074400;28;20181;-56
2022/07/30 12:20:28;;;;;;;1.25;0.63;;;27.60;88.80;;;;;;5056289;28;20175;-57
2022/07/30 12:22:53;;;;;;;0.60;0.50;;;27.60;90.10;;;;;;5073985;28;20616;-57
2022/07/30 12:25:19;;;;;;;0.50;0.50;;;27.60;90.10;;;;;;5056090;28;20182;-57
2022/07/30 12:27:46;;;;;;;0.70;0.70;;;27.80;90.80;;;;;;5073937;28;20179;-57
2022/07/30 12:30:13;;;;;;;0.70;0.70;;;28.00;91.00;;;;;;5056137;28;20623;-56
2022/07/30 12:32:39;;;;;;;0.95;0.63;;;27.60;89.70;;;;;;5073807;28;20297;-57
2022/07/30 12:35:05;;;;;;;1.27;0.50;;;27.60;90.80;;;;;;5056010;28;20646;-57
2022/07/30 12:37:31;;;;;;;0.57;0.55;;;27.90;91.00;;;;;;5073739;28;20206;-57
2022/07/30 12:40:16;;;;;;;0.60;0.60;;;27.80;90.90;;;;;;5073595;28;20261;-57
2022/07/30 12:42:53;;;;;;;0.88;0.70;;;27.70;91.10;;;;;;5073609;28;20603;-57
2022/07/30 12:45:29;;;;;;;0.88;0.70;;;27.60;91.10;;;;;;5073705;28;20574;-57
2022/07/30 12:47:56;;;;;;;0.57;0.57;;;27.40;91.10;;;;;;5039813;28;20269;-57
2022/07/30 12:50:22;;;;;;;0.52;0.52;;;27.60;91.50;;;;;;5073450;28;20167;-57
2022/07/30 12:52:52;;;;;;;0.80;0.80;;;27.50;91.50;;;;;;5073419;28;20218;-56
2022/07/30 12:55:27;;;;;;;0.60;0.57;;;27.20;91.10;;;;;;5073656;28;20548;-57
2022/07/30 12:58:00;;;;;;;1.00;0.90;;;27.50;91.00;;;;;;5073450;28;20650;-57
2022/07/30 13:00:50;;;;;;;0.70;0.70;;;27.40;90.80;;;;;;5073296;28;20524;-57